createdAt,value
2019-05-26T00:00:47.497Z,5.83
2019-05-26T00:10:52.219Z,6.13
2019-05-26T00:20:56.879Z,5.63
2019-05-26T00:31:01.453Z,5.60
2019-05-26T00:41:06.180Z,5.20
2019-05-26T00:51:10.816Z,4.37
2019-05-26T01:01:15.198Z,5.13
2019-05-26T01:11:19.627Z,5.53
2019-05-26T01:21:24.092Z,5.07
2019-05-26T01:31:28.705Z,5.10
2019-05-26T01:41:33.105Z,4.70
2019-05-26T01:51:37.897Z,4.90
2019-05-26T02:01:42.638Z,4.53
2019-05-26T02:11:47.156Z,5.20
2019-05-26T02:21:51.519Z,5.03
2019-05-26T02:31:55.916Z,4.70
2019-05-26T02:42:00.379Z,5.03
2019-05-26T02:52:05.135Z,5.63
2019-05-26T03:02:09.986Z,4.33
2019-05-26T03:12:16.274Z,5.97
2019-05-26T03:22:20.707Z,5.23
2019-05-26T03:32:25.270Z,5.50
2019-05-26T03:42:29.612Z,5.30
2019-05-26T03:52:34.377Z,5.40
2019-05-26T04:02:38.758Z,5.40
2019-05-26T04:12:43.191Z,5.90
2019-05-26T04:22:47.921Z,5.90
2019-05-26T04:32:53.309Z,5.83
2019-05-26T04:42:57.767Z,4.83
2019-05-26T04:53:06.615Z,5.23
2019-05-26T05:03:09.855Z,5.33
2019-05-26T05:13:14.334Z,5.60
2019-05-26T05:23:19.643Z,6.70
2019-05-26T05:33:24.256Z,5.60
2019-05-26T05:43:28.904Z,5.67
2019-05-26T05:53:33.337Z,6.00
2019-05-26T06:03:37.688Z,5.73
2019-05-26T06:13:42.426Z,5.57
2019-05-26T06:23:47.106Z,15.70
2019-05-26T06:33:51.522Z,10.00
2019-05-26T06:43:55.897Z,11.17
2019-05-26T06:54:00.593Z,11.23
2019-05-26T07:04:05.356Z,12.83
2019-05-26T07:24:55.240Z,13.13
2019-05-26T07:34:59.943Z,9.97
2019-05-26T07:45:05.385Z,8.30
2019-05-26T07:55:10.424Z,10.40
2019-05-26T08:05:15.141Z,7.57
2019-05-26T08:15:19.720Z,8.63
2019-05-26T08:25:24.110Z,8.23
2019-05-26T08:35:28.538Z,8.57
2019-05-26T08:45:33.258Z,8.70
2019-05-26T08:55:37.694Z,11.87
2019-05-26T09:05:42.369Z,6.87
2019-05-26T09:15:47.434Z,8.33
2019-05-26T09:25:54.515Z,10.03
2019-05-26T09:35:59.122Z,6.90
2019-05-26T09:46:03.512Z,6.70
2019-05-26T09:56:07.944Z,7.13
2019-05-26T10:06:12.381Z,6.53
2019-05-26T10:16:16.839Z,6.90
2019-05-26T10:26:21.279Z,7.63
2019-05-26T10:36:25.910Z,8.67
2019-05-26T10:46:31.475Z,7.13
2019-05-26T10:56:37.959Z,8.13
2019-05-26T11:06:42.815Z,5.80
2019-05-26T11:16:47.295Z,8.00
2019-05-26T11:26:51.771Z,6.00
2019-05-26T11:36:56.348Z,7.10
2019-05-26T11:47:00.883Z,5.47
2019-05-26T11:57:05.506Z,7.50
2019-05-26T12:07:10.432Z,5.37
2019-05-26T12:17:15.014Z,9.60
2019-05-26T12:27:19.707Z,4.90
2019-05-26T12:37:24.489Z,5.57
2019-05-26T12:47:31.170Z,7.17
2019-05-26T12:57:35.699Z,5.33
2019-05-26T13:07:40.419Z,3.77
2019-05-26T13:17:44.825Z,4.87
2019-05-26T13:27:50.524Z,3.87
2019-05-26T13:37:55.094Z,3.50
2019-05-26T13:47:59.682Z,3.50
2019-05-26T13:58:06.396Z,2.83
2019-05-26T14:08:11.005Z,2.90
2019-05-26T14:18:18.124Z,2.92
2019-05-26T14:28:22.445Z,2.62
2019-05-26T14:38:42.276Z,2.40
2019-05-26T14:48:33.753Z,3.20
2019-05-26T14:58:40.642Z,3.33
2019-05-26T15:08:45.090Z,3.30
2019-05-26T15:18:50.101Z,3.10
2019-05-26T15:29:10.513Z,4.13
2019-05-26T15:39:15.183Z,3.67
2019-05-26T15:49:19.899Z,4.70
2019-05-26T15:59:24.316Z,4.53
2019-05-26T16:09:29.003Z,4.63
2019-05-26T16:19:34.860Z,4.20
2019-05-26T16:29:39.761Z,5.10
2019-05-26T16:39:44.520Z,4.00
2019-05-26T16:49:49.475Z,4.57
2019-05-26T16:59:55.214Z,6.47
2019-05-26T17:09:59.994Z,6.47
2019-05-26T17:20:09.886Z,5.60
2019-05-26T17:30:14.954Z,6.50
2019-05-26T17:40:22.697Z,6.13
2019-05-26T17:50:27.784Z,6.23
2019-05-26T18:00:33.566Z,6.43
2019-05-26T18:10:38.430Z,7.37
2019-05-26T18:20:44.432Z,9.23
2019-05-26T18:30:49.989Z,6.57
2019-05-26T18:40:54.984Z,6.23
2019-05-26T18:51:01.877Z,8.17
2019-05-26T19:01:08.844Z,6.90
2019-05-26T19:11:13.831Z,7.80
2019-05-26T19:21:19.760Z,6.40
2019-05-26T19:31:24.123Z,7.33
2019-05-26T19:41:31.128Z,7.97
2019-05-26T19:51:36.650Z,7.03
2019-05-26T20:01:42.711Z,8.73
2019-05-26T20:11:47.359Z,7.07
2019-05-26T20:22:02.299Z,7.67
2019-05-26T20:32:06.853Z,8.23
2019-05-26T20:42:14.782Z,7.50
2019-05-26T20:52:22.455Z,8.23
2019-05-26T21:02:26.934Z,8.33
2019-05-26T21:12:32.508Z,10.33
2019-05-26T21:22:40.706Z,7.07
2019-05-26T21:32:45.083Z,7.37
2019-05-26T21:42:49.456Z,6.83
2019-05-26T21:52:53.877Z,7.53
2019-05-26T22:03:00.066Z,7.60
2019-05-26T22:13:04.567Z,10.97
2019-05-26T22:23:09.269Z,10.90
2019-05-26T22:33:13.798Z,8.20
2019-05-26T22:43:18.421Z,7.77
2019-05-26T22:53:23.173Z,8.20
2019-05-26T23:03:28.237Z,12.10
2019-05-26T23:13:32.772Z,7.90
2019-05-26T23:23:37.238Z,10.73
2019-05-26T23:33:41.606Z,9.77
2019-05-26T23:43:46.495Z,10.27
2019-05-26T23:53:50.919Z,13.33
